RS-0007 weather

Smederevo Airport
Smederevo, Podunavlje, Serbia

Public forecast

Using degrees Celsius for public forecast. Weather courtesy of forecast.io.

Closest aviation weather report (METAR) to Smederevo Airport

Closest report is Belgrade Nikola Tesla Airport, 29.8 nm (55.1 km) WNW. Retrieved 2019/12/08 07:30 UTC (7 minutes ago):

LYBE 080730Z 16004KT 0150 R12/0200N R30/0200N FG VV002 03/03 Q1022 NOSIG

Closest aviation forecast (TAF) to Smederevo Airport

Closest forecast is Belgrade Nikola Tesla Airport, 29.8 nm (55.1 km) WNW. Retrieved 2019/12/08 06:21 UTC (1 hour ago):

TAF LYBE 080500Z 0806/0906 20004KT 0300 FG VV002 TX06/0813Z TN01/0905Z BECMG 0809/0811 3000 BR BKN006 BECMG 0818/0820 0600 FG BKN003 TEMPO 0900/0906 0200 VV002